Buoy 41560

sailwx.info

Track history (hours):
 
Tides and Currents Weather Stations Pressure Air Temp Water Temp Dewpoint Dewpoint Depression Visibility Wind Speed Wind Dir Waves Ship Positions

Drifting buoy 41560

Last reported at 2015-Mar-01 03:00 UTC. Time now 2015-Mar-01 04:31 UTC.
Position N 33°48' W 022°29'.

Barometer 1035.9 mb

Date/timePositionNaut miles runAvg speedWind from/ knotsBaromVisibWave heightAir tempDewpointWater temp
2015-Mar-01 03:00N 33°48' W 022°29'1 0.6 1035.9
2015-Mar-01 02:00N 33°48' W 022°29'1 0.2 1036.4
2015-Feb-28 22:00N 33°48' W 022°30'1 0.7 1036.2
2015-Feb-28 21:00N 33°48' W 022°31'0 0.2 1036.1
2015-Feb-28 20:00N 33°48' W 022°31'1 0.8 1036.1
2015-Feb-28 19:00N 33°47' W 022°32'1 0.3 1035.8
2015-Feb-28 17:00N 33°47' W 022°31'0 0.2 1035.4
2015-Feb-28 16:00N 33°47' W 022°31'1 0.5 1035.5
2015-Feb-28 15:00N 33°48' W 022°32'0 0.3 1036.2
2015-Feb-28 14:00N 33°48' W 022°32'0 0.5 1036.8
2015-Feb-28 13:00N 33°48' W 022°32'1 0.7 1037.3
2015-Feb-28 12:00N 33°49' W 022°32'1 0.7 1037.5
2015-Feb-28 11:00N 33°49' W 022°32'1 0.9 1037.6
2015-Feb-28 10:00N 33°50' W 022°33'1 0.3 1037.4
2015-Feb-28 06:00N 33°51' W 022°33'0 0.0 1035.5
2015-Feb-28 05:00N 33°51' W 022°33'1 0.4 1035.7
2015-Feb-28 03:00N 33°51' W 022°33'2 0.4 1036.6
2015-Feb-27 23:00N 33°52' W 022°31'1 0.8 1037.0
2015-Feb-27 22:00N 33°51' W 022°30'0 0.0 1037.1
2015-Feb-27 20:00N 33°51' W 022°30'1 0.2 1036.9
2015-Feb-27 17:00N 33°52' W 022°29'0 0.2 1035.8
2015-Feb-27 16:00N 33°52' W 022°29'0 0.0 1035.9
2015-Feb-27 14:00N 33°52' W 022°29'2 0.5 1037.0
2015-Feb-27 11:00N 33°53' W 022°29'1 0.4 1037.6
2015-Feb-27 08:00N 33°54' W 022°29'1 0.3 1036.4
2015-Feb-27 06:00N 33°55' W 022°29'1 0.8 1035.4
2015-Feb-27 05:00N 33°56' W 022°30'4 0.4 1035.7
2015-Feb-26 20:00N 33°60' W 022°29'0 0.3 1035.9
2015-Feb-26 19:00N 33°60' W 022°29'1 0.6 1035.9
2015-Feb-26 18:00N 34°00' W 022°29'1 0.5 1036.0
2015-Feb-26 16:00N 34°01' W 022°29'0 0.4 1036.1
2015-Feb-26 15:00N 34°02' W 022°29'0 0.0 1036.3
2015-Feb-26 14:00N 34°02' W 022°29'1 0.4 1036.9
2015-Feb-26 12:00N 34°02' W 022°28'1 0.5 1037.5
2015-Feb-26 11:00N 34°02' W 022°27'1 1.0 1037.3
2015-Feb-26 10:00N 34°02' W 022°26'0 0.2 1037.3
2015-Feb-26 08:00N 34°01' W 022°26'1 0.7 1037.1
2015-Feb-26 06:00N 34°02' W 022°25'1 0.6 1036.8
2015-Feb-26 05:00N 34°01' W 022°24'1 0.6 1036.6
2015-Feb-26 04:00N 34°02' W 022°24'1 1.3 1036.9
2015-Feb-26 03:00N 34°01' W 022°23'0 0.0 1037.1
2015-Feb-26 02:00N 34°01' W 022°23'0 0.0 1037.6
2015-Feb-25 23:00N 34°01' W 022°23'1 0.6 1038.2
2015-Feb-25 22:00N 34°01' W 022°22'1 1.3 1038.2
2015-Feb-25 21:00N 34°01' W 022°20'0 0.4 1037.7
2015-Feb-25 20:00N 34°01' W 022°20'1 0.6 1037.4
2015-Feb-25 18:00N 34°01' W 022°19'0 0.1 1036.8
2015-Feb-25 17:00N 34°01' W 022°19'2 0.8 1036.7
2015-Feb-25 15:00N 34°00' W 022°17'0 0.0 1037.0
2015-Feb-25 13:00N 34°00' W 022°17'0 0.5 1038.4
2015-Feb-25 12:00N 33°60' W 022°17'1 0.7 1038.7
2015-Feb-25 11:00N 33°59' W 022°16'0 0.0 1038.8
2015-Feb-25 10:00N 33°59' W 022°16'2 1.5 1038.5
2015-Feb-25 09:00N 33°58' W 022°15'1 0.4 1038.1
2015-Feb-25 07:00N 33°58' W 022°14'1 0.7 1036.9
2015-Feb-25 06:00N 33°58' W 022°13'0 0.1 1036.6
2015-Feb-25 05:00N 33°58' W 022°13'1 1.2 1036.7
2015-Feb-25 04:00N 33°58' W 022°14'3 3.3 1036.9
2015-Feb-25 03:00N 33°56' W 022°12'2 0.4 1037.1
2015-Feb-24 23:00N 33°54' W 022°10'0 0.0 1038.0
2015-Feb-24 22:00N 33°54' W 022°10'0 0.0 1037.6
2015-Feb-24 21:00N 33°54' W 022°10'1 0.7 1037.1
2015-Feb-24 20:00N 33°54' W 022°10'1 1.2 1036.6
2015-Feb-24 19:00N 33°53' W 022°09'0 0.0 1036.2
2015-Feb-24 17:00N 33°53' W 022°09'1 0.8 1035.4
2015-Feb-24 16:00N 33°52' W 022°09'0 0.0 1035.3
2015-Feb-24 15:00N 33°52' W 022°09'1 0.4 1035.5
2015-Feb-24 13:00N 33°52' W 022°08'0 0.3 1036.7
2015-Feb-24 12:00N 33°51' W 022°08'1 0.7 1037.1
2015-Feb-24 11:00N 33°51' W 022°08'1 1.4 1036.6
2015-Feb-24 10:00N 33°49' W 022°07'1 0.4 1035.9
2015-Feb-24 08:00N 33°49' W 022°06'1 0.7 1034.2
2015-Feb-24 07:00N 33°49' W 022°05'1 0.6 1033.7
2015-Feb-24 06:00N 33°49' W 022°06'0 0.3 1033.4
2015-Feb-24 05:00N 33°49' W 022°06'1 0.7 1033.3
2015-Feb-24 03:00N 33°49' W 022°04'1 0.9 1033.6
2015-Feb-24 02:00N 33°48' W 022°04'1 0.9 1034.0
2015-Feb-24 01:00N 33°49' W 022°04'1 0.6 1034.1
2015-Feb-23 23:00N 33°47' W 022°04'1 0.6 1034.1
2015-Feb-23 22:00N 33°47' W 022°04'1 0.4 1033.7
2015-Feb-23 19:00N 33°46' W 022°02'0 0.2 1031.7
2015-Feb-23 17:00N 33°46' W 022°03'1 0.7 1031.2
2015-Feb-23 15:00N 33°46' W 022°01'1 0.3 1031.5
2015-Feb-23 12:00N 33°47' W 022°02'0 0.4 1033.3
2015-Feb-23 11:00N 33°46' W 022°02'1 1.2 1033.0
2015-Feb-23 10:00N 33°46' W 022°01'0 0.0 1032.8
2015-Feb-23 09:00N 33°46' W 022°01'0 0.2 1032.4
2015-Feb-23 07:00N 33°46' W 022°00'0 0.2 1030.6
2015-Feb-23 06:00N 33°46' W 022°00'0 0.3 1030.5
2015-Feb-23 05:00N 33°46' W 022°00'0 0.5 1030.4
2015-Feb-23 04:00N 33°46' W 021°60'1 0.3 1030.8
2015-Feb-22 23:00N 33°46' W 021°58'1 0.8 1032.4
2015-Feb-22 22:00N 33°45' W 021°59'2 0.9 1032.4
2015-Feb-22 20:00N 33°46' W 021°57'0 0.0 1031.8
2015-Feb-22 19:00N 33°46' W 021°57'0 0.2 1031.4
2015-Feb-22 17:00N 33°45' W 021°57'1 0.8 1030.6
2015-Feb-22 16:00N 33°46' W 021°56'0 0.0 1030.7
2015-Feb-22 15:00N 33°46' W 021°56'0 0.4 1031.1
2015-Feb-22 14:00N 33°46' W 021°56'0 0.4 1031.6
2015-Feb-22 13:00N 33°46' W 021°56'1 0.5 1032.2
2015-Feb-22 12:00N 33°46' W 021°55'1 0.3 1032.7
2015-Feb-22 10:00N 33°45' W 021°54'1 0.5 1032.7
2015-Feb-22 09:00N 33°46' W 021°54'1 0.8 1032.4
2015-Feb-22 08:00N 33°46' W 021°53'1 0.5 1031.8
2015-Feb-22 07:00N 33°46' W 021°53'1 0.8 1031.3
2015-Feb-22 06:00N 33°47' W 021°52'1 0.6 1031.0
2015-Feb-22 05:00N 33°47' W 021°53'0 0.5 1030.8
2015-Feb-22 04:00N 33°47' W 021°52'1 0.7 1030.9
2015-Feb-22 03:00N 33°47' W 021°51'1 0.3 1031.2
2015-Feb-21 23:00N 33°47' W 021°50'0 0.0 1032.3
2015-Feb-21 21:00N 33°47' W 021°50'3 0.7 1031.9
2015-Feb-21 17:00N 33°50' W 021°48'0 0.0 1030.4
2015-Feb-21 16:00N 33°50' W 021°48'1 0.3 1030.6
2015-Feb-21 12:00N 33°51' W 021°47'1 0.5 1032.3
2015-Feb-21 11:00N 33°51' W 021°48'0 0.0 1032.2
2015-Feb-21 10:00N 33°51' W 021°48'0 0.2 1032.0
2015-Feb-21 09:00N 33°51' W 021°48'2 0.6 1031.8
2015-Feb-21 06:00N 33°53' W 021°47'2 0.2 1030.5
2015-Feb-20 23:00N 33°54' W 021°49'1 0.7 1032.7
2015-Feb-20 22:00N 33°55' W 021°49'0 0.0 1032.8
2015-Feb-20 21:00N 33°55' W 021°49'0 0.4 1032.8
2015-Feb-20 20:00N 33°54' W 021°48'0 0.2 1032.7
2015-Feb-20 19:00N 33°54' W 021°48'0 0.0 1032.2
2015-Feb-20 18:00N 33°54' W 021°48'0 0.0 1031.6
2015-Feb-20 17:00N 33°54' W 021°48'0 0.5 1031.4
2015-Feb-20 16:00N 33°55' W 021°48'1 0.3 1031.5
2015-Feb-20 12:00N 33°56' W 021°49'1 0.2 1033.1
2015-Feb-20 09:00N 33°56' W 021°49'0 0.2 1031.9
2015-Feb-20 08:00N 33°56' W 021°49'0 0.2 1031.4
2015-Feb-20 07:00N 33°56' W 021°50'1 0.7 1031.3
2015-Feb-20 06:00N 33°57' W 021°50'0 0.1 1030.8
2015-Feb-20 03:00N 33°57' W 021°51'2 1.6 1032.5
2015-Feb-20 02:00N 33°57' W 021°53'2 0.2 1032.8
2015-Feb-19 16:00N 33°59' W 021°54'0 0.0 1032.4
2015-Feb-19 15:00N 33°59' W 021°54'0 0.0 1032.7
2015-Feb-19 14:00N 33°59' W 021°54'1 0.5 1033.8
2015-Feb-19 13:00N 33°59' W 021°54'0 0.1 1034.7
2015-Feb-19 11:00N 33°59' W 021°53'0 0.3 1035.1
2015-Feb-19 10:00N 33°59' W 021°54'0 0.0 1034.7
2015-Feb-19 08:00N 33°59' W 021°54'1 0.3 1033.5
2015-Feb-19 05:00N 34°00' W 021°53'1 0.4 1033.2
2015-Feb-19 03:00N 34°01' W 021°53'   1033.4
Track history (hours):
 
Tides and Currents Weather Stations Pressure Air Temp Water Temp Dewpoint Dewpoint Depression Visibility Wind Speed Wind Dir Waves Ship Positions

Drifting buoy 41560

Last reported at 2015-Mar-01 03:00 UTC. Time now 2015-Mar-01 04:31 UTC.
Position N 33°48' W 022°29'.

Barometer 1035.9 mb

Date/timePositionNaut miles runAvg speedWind from/ knotsBaromVisibWave heightAir tempDewpointWater temp
2015-Mar-01 03:00N 33°48' W 022°29'1 0.6 1035.9
2015-Mar-01 02:00N 33°48' W 022°29'1 0.2 1036.4
2015-Feb-28 22:00N 33°48' W 022°30'1 0.7 1036.2
2015-Feb-28 21:00N 33°48' W 022°31'0 0.2 1036.1
2015-Feb-28 20:00N 33°48' W 022°31'1 0.8 1036.1
2015-Feb-28 19:00N 33°47' W 022°32'1 0.3 1035.8
2015-Feb-28 17:00N 33°47' W 022°31'0 0.2 1035.4
2015-Feb-28 16:00N 33°47' W 022°31'1 0.5 1035.5
2015-Feb-28 15:00N 33°48' W 022°32'0 0.3 1036.2
2015-Feb-28 14:00N 33°48' W 022°32'0 0.5 1036.8
2015-Feb-28 13:00N 33°48' W 022°32'1 0.7 1037.3
2015-Feb-28 12:00N 33°49' W 022°32'1 0.7 1037.5
2015-Feb-28 11:00N 33°49' W 022°32'1 0.9 1037.6
2015-Feb-28 10:00N 33°50' W 022°33'1 0.3 1037.4
2015-Feb-28 06:00N 33°51' W 022°33'0 0.0 1035.5
2015-Feb-28 05:00N 33°51' W 022°33'1 0.4 1035.7
2015-Feb-28 03:00N 33°51' W 022°33'2 0.4 1036.6
2015-Feb-27 23:00N 33°52' W 022°31'1 0.8 1037.0
2015-Feb-27 22:00N 33°51' W 022°30'0 0.0 1037.1
2015-Feb-27 20:00N 33°51' W 022°30'1 0.2 1036.9
2015-Feb-27 17:00N 33°52' W 022°29'0 0.2 1035.8
2015-Feb-27 16:00N 33°52' W 022°29'0 0.0 1035.9
2015-Feb-27 14:00N 33°52' W 022°29'2 0.5 1037.0
2015-Feb-27 11:00N 33°53' W 022°29'1 0.4 1037.6
2015-Feb-27 08:00N 33°54' W 022°29'1 0.3 1036.4
2015-Feb-27 06:00N 33°55' W 022°29'1 0.8 1035.4
2015-Feb-27 05:00N 33°56' W 022°30'4 0.4 1035.7
2015-Feb-26 20:00N 33°60' W 022°29'0 0.3 1035.9
2015-Feb-26 19:00N 33°60' W 022°29'1 0.6 1035.9
2015-Feb-26 18:00N 34°00' W 022°29'1 0.5 1036.0
2015-Feb-26 16:00N 34°01' W 022°29'0 0.4 1036.1
2015-Feb-26 15:00N 34°02' W 022°29'0 0.0 1036.3
2015-Feb-26 14:00N 34°02' W 022°29'1 0.4 1036.9
2015-Feb-26 12:00N 34°02' W 022°28'1 0.5 1037.5
2015-Feb-26 11:00N 34°02' W 022°27'1 1.0 1037.3
2015-Feb-26 10:00N 34°02' W 022°26'0 0.2 1037.3
2015-Feb-26 08:00N 34°01' W 022°26'1 0.7 1037.1
2015-Feb-26 06:00N 34°02' W 022°25'1 0.6 1036.8
2015-Feb-26 05:00N 34°01' W 022°24'1 0.6 1036.6
2015-Feb-26 04:00N 34°02' W 022°24'1 1.3 1036.9
2015-Feb-26 03:00N 34°01' W 022°23'0 0.0 1037.1
2015-Feb-26 02:00N 34°01' W 022°23'0 0.0 1037.6
2015-Feb-25 23:00N 34°01' W 022°23'1 0.6 1038.2
2015-Feb-25 22:00N 34°01' W 022°22'1 1.3 1038.2
2015-Feb-25 21:00N 34°01' W 022°20'0 0.4 1037.7
2015-Feb-25 20:00N 34°01' W 022°20'1 0.6 1037.4
2015-Feb-25 18:00N 34°01' W 022°19'0 0.1 1036.8
2015-Feb-25 17:00N 34°01' W 022°19'2 0.8 1036.7
2015-Feb-25 15:00N 34°00' W 022°17'0 0.0 1037.0
2015-Feb-25 13:00N 34°00' W 022°17'0 0.5 1038.4
2015-Feb-25 12:00N 33°60' W 022°17'1 0.7 1038.7
2015-Feb-25 11:00N 33°59' W 022°16'0 0.0 1038.8
2015-Feb-25 10:00N 33°59' W 022°16'2 1.5 1038.5
2015-Feb-25 09:00N 33°58' W 022°15'1 0.4 1038.1
2015-Feb-25 07:00N 33°58' W 022°14'1 0.7 1036.9
2015-Feb-25 06:00N 33°58' W 022°13'0 0.1 1036.6
2015-Feb-25 05:00N 33°58' W 022°13'1 1.2 1036.7
2015-Feb-25 04:00N 33°58' W 022°14'3 3.3 1036.9
2015-Feb-25 03:00N 33°56' W 022°12'2 0.4 1037.1
2015-Feb-24 23:00N 33°54' W 022°10'0 0.0 1038.0
2015-Feb-24 22:00N 33°54' W 022°10'0 0.0 1037.6
2015-Feb-24 21:00N 33°54' W 022°10'1 0.7 1037.1
2015-Feb-24 20:00N 33°54' W 022°10'1 1.2 1036.6
2015-Feb-24 19:00N 33°53' W 022°09'0 0.0 1036.2
2015-Feb-24 17:00N 33°53' W 022°09'1 0.8 1035.4
2015-Feb-24 16:00N 33°52' W 022°09'0 0.0 1035.3
2015-Feb-24 15:00N 33°52' W 022°09'1 0.4 1035.5
2015-Feb-24 13:00N 33°52' W 022°08'0 0.3 1036.7
2015-Feb-24 12:00N 33°51' W 022°08'1 0.7 1037.1
2015-Feb-24 11:00N 33°51' W 022°08'1 1.4 1036.6
2015-Feb-24 10:00N 33°49' W 022°07'1 0.4 1035.9
2015-Feb-24 08:00N 33°49' W 022°06'1 0.7 1034.2
2015-Feb-24 07:00N 33°49' W 022°05'1 0.6 1033.7
2015-Feb-24 06:00N 33°49' W 022°06'0 0.3 1033.4
2015-Feb-24 05:00N 33°49' W 022°06'1 0.7 1033.3
2015-Feb-24 03:00N 33°49' W 022°04'1 0.9 1033.6
2015-Feb-24 02:00N 33°48' W 022°04'1 0.9 1034.0
2015-Feb-24 01:00N 33°49' W 022°04'1 0.6 1034.1
2015-Feb-23 23:00N 33°47' W 022°04'1 0.6 1034.1
2015-Feb-23 22:00N 33°47' W 022°04'1 0.4 1033.7
2015-Feb-23 19:00N 33°46' W 022°02'0 0.2 1031.7
2015-Feb-23 17:00N 33°46' W 022°03'1 0.7 1031.2
2015-Feb-23 15:00N 33°46' W 022°01'1 0.3 1031.5
2015-Feb-23 12:00N 33°47' W 022°02'0 0.4 1033.3
2015-Feb-23 11:00N 33°46' W 022°02'1 1.2 1033.0
2015-Feb-23 10:00N 33°46' W 022°01'0 0.0 1032.8
2015-Feb-23 09:00N 33°46' W 022°01'0 0.2 1032.4
2015-Feb-23 07:00N 33°46' W 022°00'0 0.2 1030.6
2015-Feb-23 06:00N 33°46' W 022°00'0 0.3 1030.5
2015-Feb-23 05:00N 33°46' W 022°00'0 0.5 1030.4
2015-Feb-23 04:00N 33°46' W 021°60'1 0.3 1030.8
2015-Feb-22 23:00N 33°46' W 021°58'1 0.8 1032.4
2015-Feb-22 22:00N 33°45' W 021°59'2 0.9 1032.4
2015-Feb-22 20:00N 33°46' W 021°57'0 0.0 1031.8
2015-Feb-22 19:00N 33°46' W 021°57'0 0.2 1031.4
2015-Feb-22 17:00N 33°45' W 021°57'1 0.8 1030.6
2015-Feb-22 16:00N 33°46' W 021°56'0 0.0 1030.7
2015-Feb-22 15:00N 33°46' W 021°56'0 0.4 1031.1
2015-Feb-22 14:00N 33°46' W 021°56'0 0.4 1031.6
2015-Feb-22 13:00N 33°46' W 021°56'1 0.5 1032.2
2015-Feb-22 12:00N 33°46' W 021°55'1 0.3 1032.7
2015-Feb-22 10:00N 33°45' W 021°54'1 0.5 1032.7
2015-Feb-22 09:00N 33°46' W 021°54'1 0.8 1032.4
2015-Feb-22 08:00N 33°46' W 021°53'1 0.5 1031.8
2015-Feb-22 07:00N 33°46' W 021°53'1 0.8 1031.3
2015-Feb-22 06:00N 33°47' W 021°52'1 0.6 1031.0
2015-Feb-22 05:00N 33°47' W 021°53'0 0.5 1030.8
2015-Feb-22 04:00N 33°47' W 021°52'1 0.7 1030.9
2015-Feb-22 03:00N 33°47' W 021°51'1 0.3 1031.2
2015-Feb-21 23:00N 33°47' W 021°50'0 0.0 1032.3
2015-Feb-21 21:00N 33°47' W 021°50'3 0.7 1031.9
2015-Feb-21 17:00N 33°50' W 021°48'0 0.0 1030.4
2015-Feb-21 16:00N 33°50' W 021°48'1 0.3 1030.6
2015-Feb-21 12:00N 33°51' W 021°47'1 0.5 1032.3
2015-Feb-21 11:00N 33°51' W 021°48'0 0.0 1032.2
2015-Feb-21 10:00N 33°51' W 021°48'0 0.2 1032.0
2015-Feb-21 09:00N 33°51' W 021°48'2 0.6 1031.8
2015-Feb-21 06:00N 33°53' W 021°47'2 0.2 1030.5
2015-Feb-20 23:00N 33°54' W 021°49'1 0.7 1032.7
2015-Feb-20 22:00N 33°55' W 021°49'0 0.0 1032.8
2015-Feb-20 21:00N 33°55' W 021°49'0 0.4 1032.8
2015-Feb-20 20:00N 33°54' W 021°48'0 0.2 1032.7
2015-Feb-20 19:00N 33°54' W 021°48'0 0.0 1032.2
2015-Feb-20 18:00N 33°54' W 021°48'0 0.0 1031.6
2015-Feb-20 17:00N 33°54' W 021°48'0 0.5 1031.4
2015-Feb-20 16:00N 33°55' W 021°48'1 0.3 1031.5
2015-Feb-20 12:00N 33°56' W 021°49'1 0.2 1033.1
2015-Feb-20 09:00N 33°56' W 021°49'0 0.2 1031.9
2015-Feb-20 08:00N 33°56' W 021°49'0 0.2 1031.4
2015-Feb-20 07:00N 33°56' W 021°50'1 0.7 1031.3
2015-Feb-20 06:00N 33°57' W 021°50'0 0.1 1030.8
2015-Feb-20 03:00N 33°57' W 021°51'2 1.6 1032.5
2015-Feb-20 02:00N 33°57' W 021°53'2 0.2 1032.8
2015-Feb-19 16:00N 33°59' W 021°54'0 0.0 1032.4
2015-Feb-19 15:00N 33°59' W 021°54'0 0.0 1032.7
2015-Feb-19 14:00N 33°59' W 021°54'1 0.5 1033.8
2015-Feb-19 13:00N 33°59' W 021°54'0 0.1 1034.7
2015-Feb-19 11:00N 33°59' W 021°53'0 0.3 1035.1
2015-Feb-19 10:00N 33°59' W 021°54'0 0.0 1034.7
2015-Feb-19 08:00N 33°59' W 021°54'1 0.3 1033.5
2015-Feb-19 05:00N 34°00' W 021°53'1 0.4 1033.2
2015-Feb-19 03:00N 34°01' W 021°53'   1033.4

Dump ship's entire track history